sensor_id;sensor_type;location;lat;lon;timestamp;pressure;altitude;pressure_sealevel;temperature;humidity
26719;BME280;14326;50.794;6.060;2022-12-19T00:01:10;99974.50;;;2.68;100.00
26719;BME280;14326;50.794;6.060;2022-12-19T00:03:42;99974.16;;;2.79;100.00
26719;BME280;14326;50.794;6.060;2022-12-19T00:06:09;99971.81;;;2.85;100.00
26719;BME280;14326;50.794;6.060;2022-12-19T00:08:36;99963.22;;;2.89;100.00
26719;BME280;14326;50.794;6.060;2022-12-19T00:11:03;99965.94;;;2.91;100.00
26719;BME280;14326;50.794;6.060;2022-12-19T00:13:32;99954.44;;;2.89;100.00
26719;BME280;14326;50.794;6.060;2022-12-19T00:16:00;99949.34;;;2.92;100.00
26719;BME280;14326;50.794;6.060;2022-12-19T00:18:27;99958.03;;;2.91;100.00
26719;BME280;14326;50.794;6.060;2022-12-19T00:20:56;99945.44;;;3.03;100.00
26719;BME280;14326;50.794;6.060;2022-12-19T00:23:24;99937.72;;;3.06;100.00
26719;BME280;14326;50.794;6.060;2022-12-19T00:25:52;99929.25;;;3.13;100.00
26719;BME280;14326;50.794;6.060;2022-12-19T00:28:21;99923.63;;;3.25;100.00
26719;BME280;14326;50.794;6.060;2022-12-19T00:31:03;99920.69;;;3.38;100.00
26719;BME280;14326;50.794;6.060;2022-12-19T00:33:35;99921.84;;;3.45;100.00
26719;BME280;14326;50.794;6.060;2022-12-19T00:36:10;99929.41;;;3.58;100.00
26719;BME280;14326;50.794;6.060;2022-12-19T00:38:54;99926.22;;;3.65;100.00
26719;BME280;14326;50.794;6.060;2022-12-19T00:41:25;99925.59;;;3.72;100.00
26719;BME280;14326;50.794;6.060;2022-12-19T00:43:58;99937.00;;;3.71;100.00
26719;BME280;14326;50.794;6.060;2022-12-19T00:46:27;99953.22;;;3.82;100.00
26719;BME280;14326;50.794;6.060;2022-12-19T00:48:59;99931.88;;;3.96;100.00
26719;BME280;14326;50.794;6.060;2022-12-19T00:51:32;99907.84;;;4.09;100.00
26719;BME280;14326;50.794;6.060;2022-12-19T00:54:01;99920.69;;;4.24;100.00
26719;BME280;14326;50.794;6.060;2022-12-19T00:56:34;99925.50;;;4.34;100.00
26719;BME280;14326;50.794;6.060;2022-12-19T00:59:01;99918.72;;;4.41;100.00
26719;BME280;14326;50.794;6.060;2022-12-19T01:01:33;99912.78;;;4.46;100.00
26719;BME280;14326;50.794;6.060;2022-12-19T01:04:05;99907.03;;;4.57;100.00
26719;BME280;14326;50.794;6.060;2022-12-19T01:06:39;99919.47;;;4.61;100.00
26719;BME280;14326;50.794;6.060;2022-12-19T01:09:11;99917.41;;;4.52;100.00
26719;BME280;14326;50.794;6.060;2022-12-19T01:12:04;99915.91;;;4.60;100.00
26719;BME280;14326;50.794;6.060;2022-12-19T01:14:59;99908.47;;;4.72;100.00
26719;BME280;14326;50.794;6.060;2022-12-19T01:17:26;99908.00;;;4.82;100.00
26719;BME280;14326;50.794;6.060;2022-12-19T01:19:59;99908.16;;;4.87;100.00
26719;BME280;14326;50.794;6.060;2022-12-19T01:22:28;99900.41;;;4.91;100.00
26719;BME280;14326;50.794;6.060;2022-12-19T01:24:58;99890.09;;;4.98;100.00
26719;BME280;14326;50.794;6.060;2022-12-19T01:27:25;99885.13;;;5.07;100.00
26719;BME280;14326;50.794;6.060;2022-12-19T01:30:04;99881.97;;;5.17;100.00
26719;BME280;14326;50.794;6.060;2022-12-19T01:32:32;99873.38;;;5.22;100.00
26719;BME280;14326;50.794;6.060;2022-12-19T01:35:09;99876.16;;;5.27;100.00
26719;BME280;14326;50.794;6.060;2022-12-19T01:37:46;99868.31;;;5.28;100.00
26719;BME280;14326;50.794;6.060;2022-12-19T01:40:25;99870.91;;;5.27;100.00
26719;BME280;14326;50.794;6.060;2022-12-19T01:42:55;99868.31;;;5.28;100.00
26719;BME280;14326;50.794;6.060;2022-12-19T01:45:28;99863.34;;;5.38;100.00
26719;BME280;14326;50.794;6.060;2022-12-19T01:48:00;99858.97;;;5.38;100.00
26719;BME280;14326;50.794;6.060;2022-12-19T01:50:31;99862.66;;;5.43;100.00
26719;BME280;14326;50.794;6.060;2022-12-19T01:53:04;99843.75;;;5.56;100.00
26719;BME280;14326;50.794;6.060;2022-12-19T01:55:33;99837.56;;;5.56;100.00
26719;BME280;14326;50.794;6.060;2022-12-19T01:58:01;99843.94;;;5.62;100.00
26719;BME280;14326;50.794;6.060;2022-12-19T02:00:28;99838.88;;;5.68;100.00
26719;BME280;14326;50.794;6.060;2022-12-19T02:02:57;99840.09;;;5.80;100.00
26719;BME280;14326;50.794;6.060;2022-12-19T02:05:26;99824.63;;;5.90;100.00
26719;BME280;14326;50.794;6.060;2022-12-19T02:07:53;99827.31;;;5.92;100.00
26719;BME280;14326;50.794;6.060;2022-12-19T02:10:21;99837.28;;;6.00;100.00
26719;BME280;14326;50.794;6.060;2022-12-19T02:12:48;99839.28;;;6.09;100.00
26719;BME280;14326;50.794;6.060;2022-12-19T02:15:16;99822.50;;;6.07;100.00
26719;BME280;14326;50.794;6.060;2022-12-19T02:17:54;99815.47;;;6.07;100.00
26719;BME280;14326;50.794;6.060;2022-12-19T02:20:55;99813.13;;;6.16;100.00
26719;BME280;14326;50.794;6.060;2022-12-19T02:23:53;99816.72;;;6.20;100.00
26719;BME280;14326;50.794;6.060;2022-12-19T02:26:45;99790.50;;;6.26;100.00
26719;BME280;14326;50.794;6.060;2022-12-19T02:29:37;99803.03;;;6.33;100.00
26719;BME280;14326;50.794;6.060;2022-12-19T02:32:15;99793.50;;;6.38;100.00
26719;BME280;14326;50.794;6.060;2022-12-19T02:34:49;99784.84;;;6.44;100.00
26719;BME280;14326;50.794;6.060;2022-12-19T02:37:25;99778.53;;;6.39;100.00
26719;BME280;14326;50.794;6.060;2022-12-19T02:39:57;99788.38;;;6.44;100.00
26719;BME280;14326;50.794;6.060;2022-12-19T02:42:30;99789.38;;;6.48;100.00
26719;BME280;14326;50.794;6.060;2022-12-19T02:45:03;99784.09;;;6.48;100.00
26719;BME280;14326;50.794;6.060;2022-12-19T02:47:33;99780.56;;;6.47;100.00
26719;BME280;14326;50.794;6.060;2022-12-19T02:50:00;99784.97;;;6.48;100.00
26719;BME280;14326;50.794;6.060;2022-12-19T02:52:45;99795.69;;;6.53;100.00
26719;BME280;14326;50.794;6.060;2022-12-19T02:55:16;99778.16;;;6.56;100.00
26719;BME280;14326;50.794;6.060;2022-12-19T02:58:09;99778.88;;;6.51;100.00
26719;BME280;14326;50.794;6.060;2022-12-19T03:00:45;99784.94;;;6.47;100.00
26719;BME280;14326;50.794;6.060;2022-12-19T03:03:20;99775.94;;;6.40;100.00
26719;BME280;14326;50.794;6.060;2022-12-19T03:05:58;99763.47;;;6.36;100.00
26719;BME280;14326;50.794;6.060;2022-12-19T03:08:31;99775.66;;;6.30;100.00
26719;BME280;14326;50.794;6.060;2022-12-19T03:11:05;99784.28;;;6.24;100.00
26719;BME280;14326;50.794;6.060;2022-12-19T03:13:34;99792.06;;;6.20;100.00
26719;BME280;14326;50.794;6.060;2022-12-19T03:16:04;99770.88;;;6.16;100.00
26719;BME280;14326;50.794;6.060;2022-12-19T03:18:34;99775.25;;;6.16;100.00
26719;BME280;14326;50.794;6.060;2022-12-19T03:21:05;99776.88;;;6.11;100.00
26719;BME280;14326;50.794;6.060;2022-12-19T03:23:34;99772.13;;;6.01;100.00
26719;BME280;14326;50.794;6.060;2022-12-19T03:26:05;99772.06;;;5.98;100.00
26719;BME280;14326;50.794;6.060;2022-12-19T03:28:37;99771.13;;;5.96;100.00
26719;BME280;14326;50.794;6.060;2022-12-19T03:31:07;99780.94;;;6.00;100.00
26719;BME280;14326;50.794;6.060;2022-12-19T03:33:37;99771.34;;;6.03;100.00
26719;BME280;14326;50.794;6.060;2022-12-19T03:36:08;99778.28;;;6.00;100.00
26719;BME280;14326;50.794;6.060;2022-12-19T03:38:36;99781.84;;;6.02;100.00
26719;BME280;14326;50.794;6.060;2022-12-19T03:41:05;99789.94;;;6.06;100.00
26719;BME280;14326;50.794;6.060;2022-12-19T03:43:33;99780.22;;;6.05;100.00
26719;BME280;14326;50.794;6.060;2022-12-19T03:46:01;99768.09;;;6.12;100.00
26719;BME280;14326;50.794;6.060;2022-12-19T03:48:34;99770.03;;;6.19;100.00
26719;BME280;14326;50.794;6.060;2022-12-19T03:51:10;99772.66;;;6.18;100.00
26719;BME280;14326;50.794;6.060;2022-12-19T03:53:48;99785.09;;;6.22;100.00
26719;BME280;14326;50.794;6.060;2022-12-19T03:56:25;99777.28;;;6.26;100.00
26719;BME280;14326;50.794;6.060;2022-12-19T03:58:58;99777.41;;;6.29;100.00
26719;BME280;14326;50.794;6.060;2022-12-19T04:01:27;99779.09;;;6.27;100.00
26719;BME280;14326;50.794;6.060;2022-12-19T04:03:55;99782.56;;;6.26;100.00
26719;BME280;14326;50.794;6.060;2022-12-19T04:06:26;99767.44;;;6.21;100.00
26719;BME280;14326;50.794;6.060;2022-12-19T04:08:54;99789.56;;;6.24;100.00
26719;BME280;14326;50.794;6.060;2022-12-19T04:11:23;99790.56;;;6.28;100.00
26719;BME280;14326;50.794;6.060;2022-12-19T04:13:56;99785.38;;;6.32;100.00
26719;BME280;14326;50.794;6.060;2022-12-19T04:16:31;99803.81;;;6.29;100.00
26719;BME280;14326;50.794;6.060;2022-12-19T04:19:05;99782.88;;;6.37;100.00
26719;BME280;14326;50.794;6.060;2022-12-19T04:21:39;99773.19;;;6.36;100.00
26719;BME280;14326;50.794;6.060;2022-12-19T04:24:11;99786.41;;;6.37;100.00
26719;BME280;14326;50.794;6.060;2022-12-19T04:26:41;99770.56;;;6.37;100.00
26719;BME280;14326;50.794;6.060;2022-12-19T04:29:11;99780.22;;;6.37;100.00
26719;BME280;14326;50.794;6.060;2022-12-19T04:31:40;99787.47;;;6.44;100.00
26719;BME280;14326;50.794;6.060;2022-12-19T04:34:08;99778.66;;;6.43;100.00
26719;BME280;14326;50.794;6.060;2022-12-19T04:36:36;99766.63;;;6.54;100.00
26719;BME280;14326;50.794;6.060;2022-12-19T04:39:03;99766.69;;;6.56;100.00
26719;BME280;14326;50.794;6.060;2022-12-19T04:41:30;99750.09;;;6.62;100.00
26719;BME280;14326;50.794;6.060;2022-12-19T04:43:57;99766.78;;;6.59;100.00
26719;BME280;14326;50.794;6.060;2022-12-19T04:46:23;99774.84;;;6.64;100.00
26719;BME280;14326;50.794;6.060;2022-12-19T04:48:50;99774.84;;;6.64;100.00
26719;BME280;14326;50.794;6.060;2022-12-19T04:51:17;99760.00;;;6.69;100.00
26719;BME280;14326;50.794;6.060;2022-12-19T04:53:45;99756.63;;;6.74;100.00
26719;BME280;14326;50.794;6.060;2022-12-19T04:56:11;99761.94;;;6.76;100.00
26719;BME280;14326;50.794;6.060;2022-12-19T04:58:38;99748.91;;;6.82;100.00
26719;BME280;14326;50.794;6.060;2022-12-19T05:01:06;99752.53;;;6.87;100.00
26719;BME280;14326;50.794;6.060;2022-12-19T05:03:34;99747.38;;;6.91;100.00
26719;BME280;14326;50.794;6.060;2022-12-19T05:06:06;99766.88;;;6.95;100.00
26719;BME280;14326;50.794;6.060;2022-12-19T05:08:33;99776.72;;;7.01;100.00
26719;BME280;14326;50.794;6.060;2022-12-19T05:11:03;99775.88;;;7.03;100.00
26719;BME280;14326;50.794;6.060;2022-12-19T05:13:30;99776.66;;;6.99;100.00
26719;BME280;14326;50.794;6.060;2022-12-19T05:15:57;99792.63;;;7.04;100.00
26719;BME280;14326;50.794;6.060;2022-12-19T05:18:25;99792.59;;;7.02;100.00
26719;BME280;14326;50.794;6.060;2022-12-19T05:20:52;99777.72;;;7.07;100.00
26719;BME280;14326;50.794;6.060;2022-12-19T05:23:19;99770.69;;;7.06;100.00
26719;BME280;14326;50.794;6.060;2022-12-19T05:25:46;99774.28;;;7.10;100.00
26719;BME280;14326;50.794;6.060;2022-12-19T05:28:15;99776.06;;;7.11;100.00
26719;BME280;14326;50.794;6.060;2022-12-19T05:30:42;99773.44;;;7.11;100.00
26719;BME280;14326;50.794;6.060;2022-12-19T05:33:08;99763.22;;;7.24;100.00
26719;BME280;14326;50.794;6.060;2022-12-19T05:35:35;99770.31;;;7.27;100.00
26719;BME280;14326;50.794;6.060;2022-12-19T05:38:02;99781.72;;;7.24;100.00
26719;BME280;14326;50.794;6.060;2022-12-19T05:40:29;99774.78;;;7.29;100.00
26719;BME280;14326;50.794;6.060;2022-12-19T05:42:56;99771.25;;;7.30;100.00
26719;BME280;14326;50.794;6.060;2022-12-19T05:45:24;99780.09;;;7.29;100.00
26719;BME280;14326;50.794;6.060;2022-12-19T05:47:51;99780.13;;;7.32;100.00
26719;BME280;14326;50.794;6.060;2022-12-19T05:50:17;99779.19;;;7.29;100.00
26719;BME280;14326;50.794;6.060;2022-12-19T05:52:44;99793.41;;;7.34;100.00
26719;BME280;14326;50.794;6.060;2022-12-19T05:55:10;99788.97;;;7.33;100.00
26719;BME280;14326;50.794;6.060;2022-12-19T05:57:37;99773.25;;;7.39;100.00
26719;BME280;14326;50.794;6.060;2022-12-19T06:00:05;99795.31;;;7.39;100.00
26719;BME280;14326;50.794;6.060;2022-12-19T06:02:33;99789.16;;;7.40;100.00
26719;BME280;14326;50.794;6.060;2022-12-19T06:05:00;99783.03;;;7.42;100.00
26719;BME280;14326;50.794;6.060;2022-12-19T06:07:26;99797.09;;;7.40;100.00
26719;BME280;14326;50.794;6.060;2022-12-19T06:09:54;99773.28;;;7.40;100.00
26719;BME280;14326;50.794;6.060;2022-12-19T06:12:20;99777.66;;;7.38;100.00
26719;BME280;14326;50.794;6.060;2022-12-19T06:14:47;99793.47;;;7.35;100.00
26719;BME280;14326;50.794;6.060;2022-12-19T06:17:14;99790.13;;;7.44;100.00
26719;BME280;14326;50.794;6.060;2022-12-19T06:19:42;99781.44;;;7.50;100.00
26719;BME280;14326;50.794;6.060;2022-12-19T06:22:08;99785.81;;;7.48;100.00
26719;BME280;14326;50.794;6.060;2022-12-19T06:24:35;99793.81;;;7.51;100.00
26719;BME280;14326;50.794;6.060;2022-12-19T06:27:02;99791.16;;;7.51;100.00
26719;BME280;14326;50.794;6.060;2022-12-19T06:29:28;99804.34;;;7.49;100.00
26719;BME280;14326;50.794;6.060;2022-12-19T06:31:55;99797.28;;;7.48;100.00
26719;BME280;14326;50.794;6.060;2022-12-19T06:34:22;99807.00;;;7.49;100.00
26719;BME280;14326;50.794;6.060;2022-12-19T06:36:50;99797.28;;;7.48;100.00
26719;BME280;14326;50.794;6.060;2022-12-19T06:39:16;99806.84;;;7.42;100.00
26719;BME280;14326;50.794;6.060;2022-12-19T06:41:43;99797.97;;;7.39;100.00
26719;BME280;14326;50.794;6.060;2022-12-19T06:44:27;99797.00;;;7.36;100.00
26719;BME280;14326;50.794;6.060;2022-12-19T06:46:54;99787.22;;;7.33;100.00
26719;BME280;14326;50.794;6.060;2022-12-19T06:49:20;99793.47;;;7.37;100.00
26719;BME280;14326;50.794;6.060;2022-12-19T06:51:47;99795.38;;;7.43;100.00
26719;BME280;14326;50.794;6.060;2022-12-19T06:54:15;99784.69;;;7.38;100.00
26719;BME280;14326;50.794;6.060;2022-12-19T06:56:42;99794.41;;;7.39;100.00
26719;BME280;14326;50.794;6.060;2022-12-19T06:59:11;99788.28;;;7.40;100.00
26719;BME280;14326;50.794;6.060;2022-12-19T07:01:48;99787.38;;;7.39;100.00
26719;BME280;14326;50.794;6.060;2022-12-19T07:04:20;99792.78;;;7.44;100.00
26719;BME280;14326;50.794;6.060;2022-12-19T07:06:48;99796.41;;;7.49;100.00
26719;BME280;14326;50.794;6.060;2022-12-19T07:09:16;99788.56;;;7.52;100.00
26719;BME280;14326;50.794;6.060;2022-12-19T07:11:43;99788.56;;;7.52;100.00
26719;BME280;14326;50.794;6.060;2022-12-19T07:14:09;99787.72;;;7.55;100.00
26719;BME280;14326;50.794;6.060;2022-12-19T07:16:36;99799.19;;;7.54;100.00
26719;BME280;14326;50.794;6.060;2022-12-19T07:19:03;99796.50;;;7.52;100.00
26719;BME280;14326;50.794;6.060;2022-12-19T07:21:30;99793.00;;;7.53;100.00
26719;BME280;14326;50.794;6.060;2022-12-19T07:23:57;99800.13;;;7.56;100.00
26719;BME280;14326;50.794;6.060;2022-12-19T07:26:26;99798.31;;;7.53;100.00
26719;BME280;14326;50.794;6.060;2022-12-19T07:28:53;99803.56;;;7.52;100.00
26719;BME280;14326;50.794;6.060;2022-12-19T07:31:20;99801.69;;;7.48;100.00
26719;BME280;14326;50.794;6.060;2022-12-19T07:33:47;99796.41;;;7.48;100.00
26719;BME280;14326;50.794;6.060;2022-12-19T07:36:14;99803.47;;;7.49;100.00
26719;BME280;14326;50.794;6.060;2022-12-19T07:38:40;99815.00;;;7.51;100.00
26719;BME280;14326;50.794;6.060;2022-12-19T07:41:07;99813.44;;;7.59;100.00
26719;BME280;14326;50.794;6.060;2022-12-19T07:43:35;99816.09;;;7.59;100.00
26719;BME280;14326;50.794;6.060;2022-12-19T07:46:02;99824.78;;;7.55;100.00
26719;BME280;14326;50.794;6.060;2022-12-19T07:48:29;99808.84;;;7.52;100.00
26719;BME280;14326;50.794;6.060;2022-12-19T07:50:56;99815.16;;;7.57;100.00
26719;BME280;14326;50.794;6.060;2022-12-19T07:53:23;99825.72;;;7.57;100.00
26719;BME280;14326;50.794;6.060;2022-12-19T07:55:50;99818.63;;;7.56;100.00
26719;BME280;14326;50.794;6.060;2022-12-19T07:58:16;99820.44;;;7.57;100.00
26719;BME280;14326;50.794;6.060;2022-12-19T08:00:44;99834.47;;;7.54;100.00
26719;BME280;14326;50.794;6.060;2022-12-19T08:03:11;99826.59;;;7.56;100.00
26719;BME280;14326;50.794;6.060;2022-12-19T08:05:38;99814.25;;;7.56;100.00
26719;BME280;14326;50.794;6.060;2022-12-19T08:08:04;99820.53;;;7.60;100.00
26719;BME280;14326;50.794;6.060;2022-12-19T08:10:33;99824.88;;;7.58;100.00
26719;BME280;14326;50.794;6.060;2022-12-19T08:12:59;99822.13;;;7.55;100.00
26719;BME280;14326;50.794;6.060;2022-12-19T08:15:26;99833.63;;;7.54;100.00
26719;BME280;14326;50.794;6.060;2022-12-19T08:17:54;99830.97;;;7.55;100.00
26719;BME280;14326;50.794;6.060;2022-12-19T08:20:20;99825.63;;;7.52;100.00
26719;BME280;14326;50.794;6.060;2022-12-19T08:22:47;99827.44;;;7.55;100.00
26719;BME280;14326;50.794;6.060;2022-12-19T08:25:14;99830.06;;;7.55;100.00
26719;BME280;14326;50.794;6.060;2022-12-19T08:27:41;99826.66;;;7.59;100.00
26719;BME280;14326;50.794;6.060;2022-12-19T08:30:11;99835.53;;;7.61;100.00
26719;BME280;14326;50.794;6.060;2022-12-19T08:32:38;99841.81;;;7.66;100.00
26719;BME280;14326;50.794;6.060;2022-12-19T08:35:07;99814.63;;;7.73;100.00
26719;BME280;14326;50.794;6.060;2022-12-19T08:37:34;99817.28;;;7.71;100.00
26719;BME280;14326;50.794;6.060;2022-12-19T08:40:00;99822.66;;;7.76;100.00
26719;BME280;14326;50.794;6.060;2022-12-19T08:42:27;99816.53;;;7.77;100.00
26719;BME280;14326;50.794;6.060;2022-12-19T08:44:57;99810.47;;;7.84;100.00
26719;BME280;14326;50.794;6.060;2022-12-19T08:47:24;99812.22;;;7.83;100.00
26719;BME280;14326;50.794;6.060;2022-12-19T08:49:51;99807.06;;;7.88;100.00
26719;BME280;14326;50.794;6.060;2022-12-19T08:52:19;99803.72;;;7.97;100.00
26719;BME280;14326;50.794;6.060;2022-12-19T08:54:45;99793.31;;;8.04;100.00
26719;BME280;14326;50.794;6.060;2022-12-19T08:57:12;99788.06;;;8.07;100.00
26719;BME280;14326;50.794;6.060;2022-12-19T08:59:39;99791.59;;;8.06;100.00
26719;BME280;14326;50.794;6.060;2022-12-19T09:02:06;99797.97;;;8.16;100.00
26719;BME280;14326;50.794;6.060;2022-12-19T09:04:33;99780.38;;;8.19;100.00
26719;BME280;14326;50.794;6.060;2022-12-19T09:06:59;99788.50;;;8.27;100.00
26719;BME280;14326;50.794;6.060;2022-12-19T09:09:27;99799.19;;;8.30;100.00
26719;BME280;14326;50.794;6.060;2022-12-19T09:11:54;99781.59;;;8.34;100.00
26719;BME280;14326;50.794;6.060;2022-12-19T09:14:21;99787.88;;;8.39;100.00
26719;BME280;14326;50.794;6.060;2022-12-19T09:16:47;99788.91;;;8.45;100.00
26719;BME280;14326;50.794;6.060;2022-12-19T09:19:14;99800.41;;;8.46;100.00
26719;BME280;14326;50.794;6.060;2022-12-19T09:21:42;99795.28;;;8.55;100.00
26719;BME280;14326;50.794;6.060;2022-12-19T09:24:09;99798.91;;;8.60;100.00
26719;BME280;14326;50.794;6.060;2022-12-19T09:26:37;99798.03;;;8.61;100.00
26719;BME280;14326;50.794;6.060;2022-12-19T09:29:06;99785.75;;;8.66;100.00
26719;BME280;14326;50.794;6.060;2022-12-19T09:31:33;99799.09;;;8.69;100.00
26719;BME280;14326;50.794;6.060;2022-12-19T09:34:00;99792.06;;;8.71;100.00
26719;BME280;14326;50.794;6.060;2022-12-19T09:36:26;99795.59;;;8.70;100.00
26719;BME280;14326;50.794;6.060;2022-12-19T09:38:54;99810.72;;;8.76;100.00
26719;BME280;14326;50.794;6.060;2022-12-19T09:41:38;99809.88;;;8.77;100.00
26719;BME280;14326;50.794;6.060;2022-12-19T09:44:24;99826.63;;;8.76;100.00
26719;BME280;14326;50.794;6.060;2022-12-19T09:46:56;99830.31;;;8.82;100.00
26719;BME280;14326;50.794;6.060;2022-12-19T09:49:27;99822.47;;;8.88;100.00
26719;BME280;14326;50.794;6.060;2022-12-19T09:51:58;99822.59;;;8.94;100.00
26719;BME280;14326;50.794;6.060;2022-12-19T09:54:31;99819.97;;;8.97;100.00
26719;BME280;14326;50.794;6.060;2022-12-19T09:57:02;99794.41;;;9.02;100.00
26719;BME280;14326;50.794;6.060;2022-12-19T09:59:36;99806.94;;;9.10;100.00
26719;BME280;14326;50.794;6.060;2022-12-19T10:02:19;99814.06;;;9.14;100.00
26719;BME280;14326;50.794;6.060;2022-12-19T10:04:52;99814.13;;;9.17;100.00
26719;BME280;14326;50.794;6.060;2022-12-19T10:07:21;99819.56;;;9.23;100.00
26719;BME280;14326;50.794;6.060;2022-12-19T10:09:48;99821.47;;;9.31;100.00
26719;BME280;14326;50.794;6.060;2022-12-19T10:12:24;99807.47;;;9.40;100.00
26719;BME280;14326;50.794;6.060;2022-12-19T10:15:02;99809.31;;;9.45;100.00
26719;BME280;14326;50.794;6.060;2022-12-19T10:17:45;99803.28;;;9.56;100.00
26719;BME280;14326;50.794;6.060;2022-12-19T10:20:22;99800.81;;;9.68;100.00
26719;BME280;14326;50.794;6.060;2022-12-19T10:23:04;99806.19;;;9.72;100.00
26719;BME280;14326;50.794;6.060;2022-12-19T10:25:56;99792.81;;;9.66;100.00
26719;BME280;14326;50.794;6.060;2022-12-19T10:28:37;99794.78;;;9.78;100.00
26719;BME280;14326;50.794;6.060;2022-12-19T10:31:15;99794.00;;;9.83;100.00
26719;BME280;14326;50.794;6.060;2022-12-19T10:33:46;99796.69;;;9.86;100.00
26719;BME280;14326;50.794;6.060;2022-12-19T10:36:16;99795.81;;;9.88;99.07
26719;BME280;14326;50.794;6.060;2022-12-19T10:38:50;99799.47;;;9.96;99.03
26719;BME280;14326;50.794;6.060;2022-12-19T10:41:23;99796.81;;;9.96;98.62
26719;BME280;14326;50.794;6.060;2022-12-19T10:43:56;99798.63;;;9.98;98.40
26719;BME280;14326;50.794;6.060;2022-12-19T10:46:37;99795.06;;;9.95;98.85
26719;BME280;14326;50.794;6.060;2022-12-19T10:49:12;99803.91;;;9.95;99.11
26719;BME280;14326;50.794;6.060;2022-12-19T10:51:42;99801.22;;;9.94;98.61
26719;BME280;14326;50.794;6.060;2022-12-19T10:54:18;99800.38;;;9.98;97.53
26719;BME280;14326;50.794;6.060;2022-12-19T10:56:45;99791.56;;;9.99;96.50
26719;BME280;14326;50.794;6.060;2022-12-19T10:59:15;99803.13;;;10.01;96.40
26719;BME280;14326;50.794;6.060;2022-12-19T11:01:44;99796.03;;;10.01;96.08
26719;BME280;14326;50.794;6.060;2022-12-19T11:04:27;99787.16;;;10.02;95.90
26719;BME280;14326;50.794;6.060;2022-12-19T11:07:05;99784.56;;;10.05;94.63
26719;BME280;14326;50.794;6.060;2022-12-19T11:09:42;99788.13;;;10.06;94.02
26719;BME280;14326;50.794;6.060;2022-12-19T11:12:11;99800.47;;;10.04;94.04
26719;BME280;14326;50.794;6.060;2022-12-19T11:14:40;99790.81;;;10.09;92.50
26719;BME280;14326;50.794;6.060;2022-12-19T11:17:36;99782.81;;;10.06;92.30
26719;BME280;14326;50.794;6.060;2022-12-19T11:20:11;99785.47;;;10.07;92.32
26719;BME280;14326;50.794;6.060;2022-12-19T11:22:38;99781.09;;;10.11;90.75
26719;BME280;14326;50.794;6.060;2022-12-19T11:25:15;99774.81;;;10.07;91.41
26719;BME280;14326;50.794;6.060;2022-12-19T11:27:44;99780.13;;;10.07;91.14
26719;BME280;14326;50.794;6.060;2022-12-19T11:30:17;99776.63;;;10.07;91.05
26719;BME280;14326;50.794;6.060;2022-12-19T11:32:48;99785.50;;;10.09;91.12
26719;BME280;14326;50.794;6.060;2022-12-19T11:35:19;99782.03;;;10.13;89.73
26719;BME280;14326;50.794;6.060;2022-12-19T11:37:49;99769.63;;;10.15;90.51
26719;BME280;14326;50.794;6.060;2022-12-19T11:40:23;99765.19;;;10.15;90.14
26719;BME280;14326;50.794;6.060;2022-12-19T11:42:58;99760.91;;;10.22;89.21
26719;BME280;14326;50.794;6.060;2022-12-19T11:45:35;99763.56;;;10.25;88.45
26719;BME280;14326;50.794;6.060;2022-12-19T11:48:11;99763.75;;;10.36;88.06
26719;BME280;14326;50.794;6.060;2022-12-19T11:50:48;99762.06;;;10.42;87.91
26719;BME280;14326;50.794;6.060;2022-12-19T11:53:26;99756.72;;;10.44;87.99
26719;BME280;14326;50.794;6.060;2022-12-19T11:55:57;99757.63;;;10.44;87.18
26719;BME280;14326;50.794;6.060;2022-12-19T11:58:27;99754.16;;;10.51;86.79
26719;BME280;14326;50.794;6.060;2022-12-19T12:01:04;99753.34;;;10.57;85.60
26719;BME280;14326;50.794;6.060;2022-12-19T12:04:00;99750.72;;;10.61;85.33
26719;BME280;14326;50.794;6.060;2022-12-19T12:06:36;99744.53;;;10.62;85.09
26719;BME280;14326;50.794;6.060;2022-12-19T12:09:12;99736.59;;;10.65;84.25
26719;BME280;14326;50.794;6.060;2022-12-19T12:11:48;99737.50;;;10.66;84.40
26719;BME280;14326;50.794;6.060;2022-12-19T12:14:19;99739.22;;;10.62;84.65
26719;BME280;14326;50.794;6.060;2022-12-19T12:16:56;99739.25;;;10.65;84.46
26719;BME280;14326;50.794;6.060;2022-12-19T12:19:40;99740.16;;;10.67;83.82
26719;BME280;14326;50.794;6.060;2022-12-19T12:22:19;99736.56;;;10.64;84.17
26719;BME280;14326;50.794;6.060;2022-12-19T12:24:56;99739.25;;;10.65;83.88
26719;BME280;14326;50.794;6.060;2022-12-19T12:27:41;99730.44;;;10.70;83.84
26719;BME280;14326;50.794;6.060;2022-12-19T12:30:16;99742.81;;;10.67;83.37
26719;BME280;14326;50.794;6.060;2022-12-19T12:32:57;99737.50;;;10.67;82.75
26719;BME280;14326;50.794;6.060;2022-12-19T12:35:33;99741.88;;;10.62;83.21
26719;BME280;14326;50.794;6.060;2022-12-19T12:38:12;99729.44;;;10.60;83.33
26719;BME280;14326;50.794;6.060;2022-12-19T12:40:57;99735.66;;;10.62;83.19
26719;BME280;14326;50.794;6.060;2022-12-19T12:43:40;99734.78;;;10.63;82.72
26719;BME280;14326;50.794;6.060;2022-12-19T12:46:13;99743.66;;;10.63;82.37
26719;BME280;14326;50.794;6.060;2022-12-19T12:48:44;99731.28;;;10.65;81.70
26719;BME280;14326;50.794;6.060;2022-12-19T12:51:15;99725.97;;;10.65;82.46
26719;BME280;14326;50.794;6.060;2022-12-19T12:53:45;99726.84;;;10.64;82.57
26719;BME280;14326;50.794;6.060;2022-12-19T12:56:15;99727.66;;;10.60;83.12
26719;BME280;14326;50.794;6.060;2022-12-19T12:59:02;99725.91;;;10.59;82.98
26719;BME280;14326;50.794;6.060;2022-12-19T13:01:33;99721.47;;;10.61;82.88
26719;BME280;14326;50.794;6.060;2022-12-19T13:04:04;99733.03;;;10.65;82.46
26719;BME280;14326;50.794;6.060;2022-12-19T13:06:35;99733.03;;;10.65;81.88
26719;BME280;14326;50.794;6.060;2022-12-19T13:09:04;99730.38;;;10.63;82.14
26719;BME280;14326;50.794;6.060;2022-12-19T13:11:47;99733.88;;;10.59;82.86
26719;BME280;14326;50.794;6.060;2022-12-19T13:14:44;99740.00;;;10.52;82.86
26719;BME280;14326;50.794;6.060;2022-12-19T13:17:12;99742.59;;;10.46;83.32
26719;BME280;14326;50.794;6.060;2022-12-19T13:19:53;99734.59;;;10.46;82.97
26719;BME280;14326;50.794;6.060;2022-12-19T13:22:40;99732.81;;;10.42;83.68